Time;durP1;ratioP1;P1;durP2;ratioP2;P2;SDS_P1;SDS_P2;PMS_P1;PMS_P2;Temp;Humidity;BMP_temperature;BMP_pressure;BME280_temperature;BME280_humidity;BME280_pressure;Samples;Min_cycle;Max_cycle;Signal;HPM_P1;HPM_P2
2022/06/27 00:01:24;;;;;;;4.22;2.10;;;;;;;26.00;43.25;99588.97;4495826;31;34026;-59
2022/06/27 00:03:52;;;;;;;7.30;2.60;;;;;;;26.03;43.11;99594.00;4496236;31;33767;-62
2022/06/27 00:06:20;;;;;;;6.28;2.58;;;;;;;26.07;43.03;99592.53;4495990;31;32637;-59
2022/06/27 00:08:48;;;;;;;6.93;2.40;;;;;;;26.06;42.94;99585.34;4496924;31;33209;-59
2022/06/27 00:11:17;;;;;;;4.30;2.45;;;;;;;25.97;43.23;99582.03;4494645;31;33618;-60
2022/06/27 00:13:45;;;;;;;5.25;2.50;;;;;;;25.94;43.18;99587.97;4492601;31;33583;-59
2022/06/27 00:16:13;;;;;;;5.15;2.90;;;;;;;25.79;43.53;99590.09;4494232;31;33851;-62
2022/06/27 00:19:01;;;;;;;4.35;2.12;;;;;;;25.72;43.60;99595.63;4492990;31;34157;-59
2022/06/27 00:21:28;;;;;;;4.53;2.60;;;;;;;25.69;43.67;99595.22;4495478;31;32714;-61
2022/06/27 00:23:56;;;;;;;6.00;2.72;;;;;;;25.73;43.53;99591.81;4493861;31;33197;-59
2022/06/27 00:26:24;;;;;;;4.22;2.30;;;;;;;25.73;43.62;99596.47;4498017;31;33897;-59
2022/06/27 00:28:51;;;;;;;4.85;2.40;;;;;;;25.72;43.96;99589.31;4496874;31;33480;-61
2022/06/27 00:31:19;;;;;;;4.37;2.28;;;;;;;25.68;44.09;99586.16;4494421;31;34181;-59
2022/06/27 00:33:47;;;;;;;4.85;2.37;;;;;;;25.85;43.63;99588.44;4495334;31;33868;-59
2022/06/27 00:36:14;;;;;;;4.28;2.40;;;;;;;25.82;43.70;99580.66;4493296;31;34585;-62
2022/06/27 00:38:42;;;;;;;6.15;2.37;;;;;;;25.83;43.71;99577.66;4495692;31;33566;-59
2022/06/27 00:41:10;;;;;;;6.00;2.03;;;;;;;25.79;43.90;99579.97;4490228;31;33774;-62
2022/06/27 00:43:37;;;;;;;3.92;2.30;;;;;;;25.73;44.16;99589.06;4496429;31;32971;-59
2022/06/27 00:46:05;;;;;;;5.05;2.30;;;;;;;25.68;44.23;99588.03;4496897;31;33595;-59
2022/06/27 00:48:33;;;;;;;4.55;2.95;;;;;;;25.27;45.05;99581.00;4496647;31;33130;-60
2022/06/27 00:51:00;;;;;;;4.70;2.60;;;;;;;25.36;44.86;99590.69;4495425;31;34934;-62
2022/06/27 00:53:28;;;;;;;4.70;2.80;;;;;;;25.46;44.66;99591.06;4489117;31;32893;-59
2022/06/27 00:55:56;;;;;;;4.43;2.33;;;;;;;25.54;44.43;99600.94;4492826;31;34853;-59
2022/06/27 00:58:24;;;;;;;4.28;2.28;;;;;;;25.43;44.66;99594.25;4496860;31;33472;-59
2022/06/27 01:00:52;;;;;;;6.30;2.47;;;;;;;25.42;44.60;99594.44;4496104;31;33884;-62
2022/06/27 01:03:20;;;;;;;5.22;2.45;;;;;;;25.45;44.64;99599.50;4497549;31;33718;-60
2022/06/27 01:05:54;;;;;;;4.12;2.15;;;;;;;25.37;44.79;99595.09;4492682;31;33482;-62
2022/06/27 01:08:25;;;;;;;4.90;2.37;;;;;;;25.37;44.71;99595.09;4483616;32;31871;-60
2022/06/27 01:10:53;;;;;;;6.75;2.85;;;;;;;25.32;44.94;99601.19;4498185;31;35105;-61
2022/06/27 01:13:21;;;;;;;4.95;2.85;;;;;;;25.48;44.61;99601.81;4496969;31;34043;-60
2022/06/27 01:15:49;;;;;;;6.65;2.45;;;;;;;25.51;44.76;99602.22;4495400;31;34803;-59
2022/06/27 01:18:16;;;;;;;6.25;2.40;;;;;;;25.54;44.72;99596.31;4488786;31;33260;-60
2022/06/27 01:20:45;;;;;;;4.32;2.58;;;;;;;25.43;44.93;99596.16;4496441;31;35000;-61
2022/06/27 01:23:13;;;;;;;5.15;2.42;;;;;;;25.45;44.89;99597.59;4497016;31;35021;-62
2022/06/27 01:25:41;;;;;;;4.12;2.10;;;;;;;25.52;44.91;99597.56;4494692;31;33917;-61
2022/06/27 01:28:10;;;;;;;5.93;2.40;;;;;;;25.54;44.79;99595.47;4497288;31;33228;-61
2022/06/27 01:30:38;;;;;;;4.28;2.30;;;;;;;25.55;44.71;99597.13;4488839;31;33561;-59
2022/06/27 01:33:06;;;;;;;4.90;2.60;;;;;;;25.64;44.54;99589.53;4498240;31;34749;-59
2022/06/27 01:35:34;;;;;;;4.32;2.60;;;;;;;25.43;45.14;99586.03;4496759;31;32769;-61
2022/06/27 01:38:03;;;;;;;3.62;2.25;;;;;;;25.45;45.19;99600.31;4495867;31;33128;-58
2022/06/27 01:40:31;;;;;;;3.60;2.10;;;;;;;25.56;44.76;99591.47;4493934;31;33729;-59
2022/06/27 01:42:58;;;;;;;6.75;2.67;;;;;;;25.46;45.10;99596.56;4495028;31;33950;-60
2022/06/27 01:45:29;;;;;;;5.07;2.58;;;;;;;25.61;44.71;99587.22;4492604;31;34494;-61
2022/06/27 01:47:56;;;;;;;5.50;2.50;;;;;;;25.50;44.89;99586.84;4498319;31;33263;-59
2022/06/27 01:50:25;;;;;;;7.20;2.87;;;;;;;25.44;45.02;99587.69;4497512;31;33825;-59
2022/06/27 01:52:54;;;;;;;5.85;2.53;;;;;;;25.35;45.05;99593.62;4482816;31;33618;-60
2022/06/27 01:55:22;;;;;;;5.18;2.42;;;;;;;25.33;44.93;99594.69;4483244;31;35395;-59
2022/06/27 01:57:49;;;;;;;14.00;3.08;;;;;;;25.26;44.95;99588.34;4493491;31;34223;-58
2022/06/27 02:00:17;;;;;;;4.50;2.37;;;;;;;25.25;44.77;99594.91;4495937;31;33656;-59
2022/06/27 02:02:56;;;;;;;6.28;2.30;;;;;;;25.29;44.72;99589.84;4496624;31;35264;-60
2022/06/27 02:05:25;;;;;;;4.30;2.30;;;;;;;25.21;44.80;99590.06;4493168;31;33606;-59
2022/06/27 02:07:55;;;;;;;4.82;2.45;;;;;;;25.11;45.19;99604.19;4498964;31;33090;-58
2022/06/27 02:10:23;;;;;;;3.97;2.50;;;;;;;25.09;45.36;99600.78;4498966;31;35015;-59
2022/06/27 02:12:51;;;;;;;5.75;2.80;;;;;;;25.12;45.46;99605.00;4485178;31;32749;-60
2022/06/27 02:15:18;;;;;;;5.15;2.33;;;;;;;24.91;46.01;99603.34;4490442;31;34047;-59
2022/06/27 02:17:46;;;;;;;6.93;2.50;;;;;;;25.07;45.56;99597.41;4484255;31;33376;-59
2022/06/27 02:20:14;;;;;;;4.85;2.70;;;;;;;25.04;45.74;99609.66;4484982;31;32413;-62
2022/06/27 02:22:42;;;;;;;5.55;2.80;;;;;;;24.91;46.19;99601.47;4485790;31;32649;-59
2022/06/27 02:25:10;;;;;;;4.43;2.45;;;;;;;25.08;45.65;99604.59;4482525;31;34578;-59
2022/06/27 02:27:38;;;;;;;3.83;2.03;;;;;;;25.10;45.60;99613.44;4483054;31;33029;-61
2022/06/27 02:30:13;;;;;;;4.43;2.12;;;;;;;25.09;45.70;99611.75;4480444;31;33215;-59
2022/06/27 02:32:41;;;;;;;5.40;2.53;;;;;;;25.02;45.90;99611.75;4486165;31;34736;-61
2022/06/27 02:35:09;;;;;;;5.95;3.05;;;;;;;25.08;45.74;99601.88;4492127;31;33659;-61
2022/06/27 02:37:36;;;;;;;6.10;2.97;;;;;;;25.13;45.63;99615.78;4487831;31;31963;-59
2022/06/27 02:40:05;;;;;;;3.83;2.35;;;;;;;25.12;45.61;99614.09;4491339;31;33578;-61
2022/06/27 02:42:33;;;;;;;4.80;2.70;;;;;;;25.13;45.63;99614.94;4494751;31;35533;-58
2022/06/27 02:45:01;;;;;;;3.87;2.58;;;;;;;25.07;45.74;99620.19;4494808;31;34930;-59
2022/06/27 02:47:32;;;;;;;4.35;2.62;;;;;;;25.10;45.62;99618.91;4496981;31;35118;-59
2022/06/27 02:50:00;;;;;;;5.10;2.33;;;;;;;24.81;46.43;99623.75;4496751;31;33783;-59
2022/06/27 02:52:36;;;;;;;5.15;2.83;;;;;;;24.90;46.11;99618.09;4494483;31;35243;-59
2022/06/27 02:55:13;;;;;;;4.72;2.60;;;;;;;24.92;46.05;99618.72;4495371;31;34861;-60
2022/06/27 02:57:41;;;;;;;4.30;2.75;;;;;;;25.05;45.73;99622.28;4495920;31;33314;-60
2022/06/27 03:00:10;;;;;;;4.53;2.80;;;;;;;24.95;45.98;99630.09;4494238;31;33461;-59
2022/06/27 03:02:42;;;;;;;4.80;3.10;;;;;;;25.02;46.01;99632.81;4497275;31;33961;-60
2022/06/27 03:05:12;;;;;;;5.82;2.97;;;;;;;25.05;45.95;99626.94;4497051;31;33240;-60
2022/06/27 03:07:41;;;;;;;5.65;3.03;;;;;;;25.01;46.37;99631.16;4496514;31;32173;-59
2022/06/27 03:10:10;;;;;;;7.00;3.50;;;;;;;24.98;46.62;99635.16;4495120;31;34988;-62
2022/06/27 03:12:39;;;;;;;6.90;3.12;;;;;;;24.82;47.27;99641.88;4493582;31;33974;-59
2022/06/27 03:15:08;;;;;;;6.53;3.92;;;;;;;25.00;46.95;99640.41;4493364;31;34329;-60
2022/06/27 03:17:36;;;;;;;7.05;3.47;;;;;;;24.99;47.03;99641.47;4492554;31;34397;-62
2022/06/27 03:20:10;;;;;;;8.45;3.72;;;;;;;24.66;48.06;99641.44;4490805;31;33853;-59
2022/06/27 03:22:39;;;;;;;6.07;3.35;;;;;;;24.87;47.56;99646.72;4496823;31;34074;-62
2022/06/27 03:25:07;;;;;;;7.25;3.40;;;;;;;24.95;47.35;99645.69;4496235;31;34710;-59
2022/06/27 03:27:35;;;;;;;5.55;3.55;;;;;;;24.68;48.20;99656.59;4491029;31;33019;-58
2022/06/27 03:30:04;;;;;;;7.32;4.22;;;;;;;25.12;47.19;99651.56;4488682;31;34069;-61
2022/06/27 03:32:31;;;;;;;4.87;2.87;;;;;;;25.33;46.60;99657.69;4496031;31;34237;-59
2022/06/27 03:35:00;;;;;;;5.53;3.40;;;;;;;25.43;46.61;99654.50;4497015;31;33842;-63
2022/06/27 03:37:30;;;;;;;6.10;3.15;;;;;;;25.60;46.21;99656.78;4495672;31;34389;-61
2022/06/27 03:39:58;;;;;;;6.53;3.55;;;;;;;25.71;46.08;99659.69;4493079;31;33351;-60
2022/06/27 03:42:27;;;;;;;5.90;3.12;;;;;;;25.70;46.07;99652.53;4497696;31;33945;-60
2022/06/27 03:44:54;;;;;;;4.95;3.00;;;;;;;25.81;46.20;99653.81;4496126;31;34645;-60
2022/06/27 03:47:22;;;;;;;7.53;3.20;;;;;;;25.93;46.14;99656.72;4495251;31;34267;-62
2022/06/27 03:50:01;;;;;;;5.95;3.03;;;;;;;25.85;46.29;99652.31;4490105;31;33564;-59
2022/06/27 03:52:29;;;;;;;5.23;3.30;;;;;;;26.05;45.79;99665.94;4496337;31;32847;-63
2022/06/27 03:54:57;;;;;;;6.10;3.50;;;;;;;26.20;45.35;99652.81;4497365;31;34034;-64
2022/06/27 03:57:24;;;;;;;5.30;2.97;;;;;;;26.20;45.27;99666.53;4496859;31;33399;-59
2022/06/27 03:59:53;;;;;;;5.85;3.50;;;;;;;26.26;45.14;99656.59;4496079;31;33571;-62
2022/06/27 04:02:22;;;;;;;6.40;3.70;;;;;;;26.28;45.24;99657.19;4495165;31;35195;-60
2022/06/27 04:04:51;;;;;;;7.25;3.37;;;;;;;26.03;45.51;99662.56;4497389;31;33930;-60
2022/06/27 04:07:19;;;;;;;6.43;3.50;;;;;;;26.24;45.28;99664.19;4494843;31;33071;-60
2022/06/27 04:09:47;;;;;;;5.72;3.10;;;;;;;26.47;45.24;99669.97;4495633;31;33637;-61
2022/06/27 04:12:15;;;;;;;5.95;3.15;;;;;;;26.52;45.20;99671.22;4493766;31;33972;-59
2022/06/27 04:14:46;;;;;;;5.18;3.08;;;;;;;26.75;44.46;99667.94;4493934;31;32171;-61
2022/06/27 04:17:15;;;;;;;6.57;3.40;;;;;;;26.63;44.69;99673.28;4494946;31;33399;-59
2022/06/27 04:19:44;;;;;;;5.07;3.25;;;;;;;26.37;44.99;99669.59;4493778;31;33564;-61
2022/06/27 04:22:15;;;;;;;5.32;3.10;;;;;;;26.48;44.73;99671.69;4488357;31;32736;-59
2022/06/27 04:24:46;;;;;;;6.00;3.42;;;;;;;26.50;44.71;99693.41;4490198;31;34651;-60
2022/06/27 04:27:19;;;;;;;6.05;3.45;;;;;;;26.27;45.36;99677.47;4495185;31;32710;-62
2022/06/27 04:29:50;;;;;;;5.65;3.30;;;;;;;26.17;45.77;99682.59;4496321;31;35242;-61
2022/06/27 04:32:18;;;;;;;6.12;3.90;;;;;;;25.98;46.13;99690.66;4494380;31;34402;-62
2022/06/27 04:34:46;;;;;;;6.45;3.28;;;;;;;26.01;46.35;99683.91;4495833;31;33361;-60
2022/06/27 04:37:15;;;;;;;8.55;3.30;;;;;;;26.24;45.87;99686.13;4494797;31;34085;-59
2022/06/27 04:39:45;;;;;;;6.65;3.40;;;;;;;26.27;45.57;99693.09;4493675;31;32235;-63
2022/06/27 04:42:15;;;;;;;6.90;3.58;;;;;;;25.90;46.50;99690.88;4498994;31;34022;-59
2022/06/27 04:44:43;;;;;;;6.50;3.40;;;;;;;26.05;46.12;99685.16;4498851;31;34814;-59
2022/06/27 04:47:13;;;;;;;6.97;3.75;;;;;;;26.01;46.28;99686.66;4495006;31;33010;-62
2022/06/27 04:49:42;;;;;;;5.95;3.47;;;;;;;26.21;45.81;99683.81;4497282;31;33987;-59
2022/06/27 04:52:12;;;;;;;6.55;3.75;;;;;;;26.20;45.81;99684.88;4490927;31;33981;-61
2022/06/27 04:54:43;;;;;;;6.62;3.55;;;;;;;26.08;46.15;99683.88;4497110;31;32433;-60
2022/06/27 04:57:10;;;;;;;7.87;3.20;;;;;;;26.14;46.08;99689.34;4497090;31;33215;-58
2022/06/27 04:59:38;;;;;;;6.43;3.00;;;;;;;26.04;46.34;99694.44;4495233;31;34744;-60
2022/06/27 05:02:07;;;;;;;5.80;2.95;;;;;;;26.09;45.94;99689.13;4493760;31;35015;-63
2022/06/27 05:04:34;;;;;;;8.63;3.47;;;;;;;26.32;45.40;99696.84;4498657;31;33834;-60
2022/06/27 05:07:02;;;;;;;5.62;3.53;;;;;;;26.38;45.63;99697.88;4496771;31;33152;-60
2022/06/27 05:09:30;;;;;;;6.95;3.60;;;;;;;26.44;45.70;99697.84;4495878;31;34744;-59
2022/06/27 05:11:57;;;;;;;7.43;3.10;;;;;;;26.47;45.28;99702.06;4494429;31;34173;-59
2022/06/27 05:14:26;;;;;;;6.35;3.37;;;;;;;26.71;45.22;99687.59;4497589;31;32998;-59
2022/06/27 05:16:54;;;;;;;6.05;3.28;;;;;;;25.98;46.50;99698.06;4498750;31;33048;-61
2022/06/27 05:19:22;;;;;;;6.70;3.12;;;;;;;26.21;45.64;99703.03;4489609;31;33980;-59
2022/06/27 05:21:50;;;;;;;8.25;3.30;;;;;;;26.36;44.78;99705.50;4492897;31;33850;-59
2022/06/27 05:24:18;;;;;;;6.55;3.40;;;;;;;26.14;45.61;99699.47;4492007;31;32694;-61
2022/06/27 05:26:46;;;;;;;7.22;3.67;;;;;;;25.84;46.68;99701.88;4495370;31;33427;-59
2022/06/27 05:29:14;;;;;;;5.25;3.35;;;;;;;26.31;45.84;99697.91;4497147;31;33689;-62
2022/06/27 05:31:43;;;;;;;6.35;3.15;;;;;;;26.33;45.68;99703.19;4491612;31;34876;-58
2022/06/27 05:34:11;;;;;;;6.07;3.37;;;;;;;26.61;45.30;99689.13;4483023;31;34132;-60
2022/06/27 05:36:41;;;;;;;9.40;3.60;;;;;;;26.65;44.35;99691.22;4483993;31;34765;-59
2022/06/27 05:39:09;;;;;;;5.32;3.33;;;;;;;26.07;46.08;99701.38;4495242;31;32678;-58
2022/06/27 05:41:37;;;;;;;7.65;3.90;;;;;;;25.94;46.34;99699.53;4496989;31;34981;-58
2022/06/27 05:44:05;;;;;;;6.10;4.00;;;;;;;26.28;46.14;99700.25;4496049;31;34129;-60
2022/06/27 05:46:33;;;;;;;6.47;3.75;;;;;;;26.15;46.38;99696.50;4496578;31;33247;-61
2022/06/27 05:49:03;;;;;;;6.87;3.45;;;;;;;26.20;45.72;99704.09;4492641;31;35196;-62
2022/06/27 05:51:30;;;;;;;8.70;4.00;;;;;;;26.44;46.10;99705.22;4497342;31;32988;-61
2022/06/27 05:54:00;;;;;;;4.53;3.12;;;;;;;26.64;45.12;99694.16;4496516;31;35020;-60
2022/06/27 05:56:29;;;;;;;8.98;3.67;;;;;;;26.88;44.75;99695.28;4496515;31;33457;-59
2022/06/27 05:58:57;;;;;;;8.80;3.28;;;;;;;26.65;44.64;99704.94;4496480;31;33997;-61
2022/06/27 06:01:25;;;;;;;5.45;3.20;;;;;;;26.88;44.29;99706.28;4490325;31;33844;-61
2022/06/27 06:03:55;;;;;;;7.05;3.75;;;;;;;27.03;43.98;99704.06;4492063;31;34610;-56
2022/06/27 06:06:24;;;;;;;7.37;3.70;;;;;;;26.70;44.31;99709.75;4496222;31;32647;-58
2022/06/27 06:08:53;;;;;;;7.10;3.70;;;;;;;26.53;44.82;99714.09;4496665;31;33827;-59
2022/06/27 06:11:21;;;;;;;5.62;3.40;;;;;;;26.82;44.66;99720.88;4493859;31;35069;-58
2022/06/27 06:13:50;;;;;;;7.60;4.00;;;;;;;26.87;44.27;99719.16;4495499;31;33915;-59
2022/06/27 06:16:19;;;;;;;7.50;3.50;;;;;;;26.43;44.87;99723.59;4497900;31;33561;-59
2022/06/27 06:18:53;;;;;;;6.97;3.83;;;;;;;26.31;45.94;99727.25;4494960;31;34003;-60
2022/06/27 06:21:21;;;;;;;11.60;4.15;;;;;;;26.84;44.82;99725.09;4488677;31;35210;-58
2022/06/27 06:23:51;;;;;;;7.53;3.87;;;;;;;26.86;45.20;99727.63;4495187;31;33013;-59
2022/06/27 06:26:19;;;;;;;6.90;3.67;;;;;;;27.24;43.95;99733.06;4490501;31;33553;-60
2022/06/27 06:28:49;;;;;;;7.53;3.45;;;;;;;27.13;44.48;99733.78;4493898;31;33861;-59
2022/06/27 06:31:23;;;;;;;7.00;3.62;;;;;;;27.68;43.43;99727.63;4488541;31;33095;-58
2022/06/27 06:33:53;;;;;;;6.72;3.40;;;;;;;28.02;43.03;99720.72;4497980;31;34686;-59
2022/06/27 06:36:22;;;;;;;6.75;3.75;;;;;;;27.97;42.54;99729.66;4496035;31;33036;-58
2022/06/27 06:38:51;;;;;;;5.90;3.80;;;;;;;27.70;43.30;99725.47;4495669;31;33834;-61
2022/06/27 06:41:19;;;;;;;7.15;3.60;;;;;;;27.83;42.51;99737.22;4495218;31;34719;-61
2022/06/27 06:43:48;;;;;;;5.80;3.50;;;;;;;27.76;42.95;99733.66;4495997;31;33608;-61
2022/06/27 06:46:17;;;;;;;7.15;3.90;;;;;;;27.56;43.07;99725.59;4497733;31;33418;-60
2022/06/27 06:48:46;;;;;;;5.35;3.47;;;;;;;27.82;43.42;99727.28;4496657;31;34554;-59
2022/06/27 06:51:18;;;;;;;8.85;3.92;;;;;;;27.47;43.58;99728.84;4493448;31;34928;-59
2022/06/27 06:53:46;;;;;;;7.45;3.40;;;;;;;27.70;43.83;99731.81;4490717;31;33006;-60
2022/06/27 06:56:14;;;;;;;6.05;3.42;;;;;;;27.78;43.56;99730.72;4496987;31;34572;-58
2022/06/27 06:58:42;;;;;;;7.95;3.70;;;;;;;28.01;43.52;99730.88;4484964;31;33180;-58
2022/06/27 07:01:09;;;;;;;6.07;4.10;;;;;;;28.05;42.70;99732.09;4489639;31;34270;-58
2022/06/27 07:03:38;;;;;;;7.80;3.80;;;;;;;28.13;41.81;99739.22;4495941;31;34789;-59
2022/06/27 07:06:06;;;;;;;6.32;3.65;;;;;;;27.69;43.11;99732.03;4495868;31;34344;-60
2022/06/27 07:08:39;;;;;;;6.57;3.90;;;;;;;28.03;42.63;99730.66;4494601;31;33729;-62
2022/06/27 07:11:07;;;;;;;5.47;3.58;;;;;;;27.72;43.03;99734.34;4494406;31;34200;-58
2022/06/27 07:13:35;;;;;;;14.52;3.92;;;;;;;27.92;43.66;99737.75;4494431;31;34855;-58
2022/06/27 07:16:03;;;;;;;8.32;3.72;;;;;;;28.27;42.56;99742.63;4494785;31;32045;-60
2022/06/27 07:18:33;;;;;;;8.35;4.28;;;;;;;28.02;43.05;99734.47;4484653;31;33940;-62
2022/06/27 07:21:01;;;;;;;8.10;3.62;;;;;;;27.65;43.86;99731.66;4498106;31;33807;-59
2022/06/27 07:23:33;;;;;;;7.72;3.67;;;;;;;28.08;43.70;99734.37;4497985;31;33782;-60
2022/06/27 07:26:00;;;;;;;8.95;3.62;;;;;;;28.30;42.20;99732.00;4495112;31;32782;-58
2022/06/27 07:28:29;;;;;;;7.57;3.90;;;;;;;28.35;42.31;99731.34;4496675;31;33831;-60
2022/06/27 07:30:58;;;;;;;6.22;3.67;;;;;;;28.24;42.28;99740.34;4487979;31;102942;-59
2022/06/27 07:33:26;;;;;;;6.60;3.90;;;;;;;28.40;42.05;99737.00;4495830;31;33936;-58
2022/06/27 07:35:53;;;;;;;7.68;3.80;;;;;;;28.43;41.65;99739.28;4497113;31;33019;-61
2022/06/27 07:38:22;;;;;;;6.45;4.00;;;;;;;28.52;41.63;99740.66;4502699;31;33746;-58
2022/06/27 07:40:49;;;;;;;7.40;3.83;;;;;;;28.50;42.39;99745.53;4498403;31;35302;-60
2022/06/27 07:43:17;;;;;;;11.00;4.50;;;;;;;28.75;42.08;99742.66;4493413;31;34548;-58
2022/06/27 07:45:45;;;;;;;9.52;3.80;;;;;;;28.50;41.65;99744.72;4491757;31;31846;-58
2022/06/27 07:48:12;;;;;;;7.37;3.72;;;;;;;28.73;41.53;99750.34;4496031;31;34305;-59
2022/06/27 07:50:40;;;;;;;8.40;4.28;;;;;;;28.85;40.63;99752.28;4496955;31;32503;-59
2022/06/27 07:53:17;;;;;;;7.12;3.30;;;;;;;28.96;41.06;99749.56;4492961;31;33857;-58
2022/06/27 07:55:56;;;;;;;5.62;3.22;;;;;;;28.88;41.07;99755.41;4485811;31;34117;-58
2022/06/27 07:58:38;;;;;;;7.30;3.60;;;;;;;28.92;40.80;99753.03;4497493;31;34696;-61
2022/06/27 08:01:08;;;;;;;8.55;3.53;;;;;;;28.91;40.60;99749.44;4485987;31;34179;-59
2022/06/27 08:03:40;;;;;;;5.68;3.37;;;;;;;28.82;41.42;99752.75;4494870;31;34052;-59
2022/06/27 08:06:20;;;;;;;7.05;3.87;;;;;;;29.13;39.97;99747.00;4498177;31;33902;-59
2022/06/27 08:08:52;;;;;;;8.20;3.17;;;;;;;29.22;40.34;99753.88;4495222;31;34941;-59
2022/06/27 08:11:27;;;;;;;8.02;3.72;;;;;;;29.25;39.81;99758.06;4495934;31;33940;-58
2022/06/27 08:13:57;;;;;;;7.90;3.65;;;;;;;29.11;40.08;99760.19;4499874;31;32909;-59
2022/06/27 08:16:26;;;;;;;9.15;3.70;;;;;;;29.27;39.63;99758.66;4497029;31;32129;-60
2022/06/27 08:18:53;;;;;;;4.80;3.37;;;;;;;29.17;40.21;99759.22;4476473;31;32254;-61
2022/06/27 08:21:27;;;;;;;4.95;3.12;;;;;;;29.54;40.15;99756.31;4496663;31;32510;-59
2022/06/27 08:23:59;;;;;;;6.90;3.75;;;;;;;29.46;39.72;99764.91;4497203;31;34718;-63
2022/06/27 08:26:28;;;;;;;7.68;3.37;;;;;;;29.80;39.06;99770.75;4496551;31;33385;-61
2022/06/27 08:28:58;;;;;;;6.82;3.67;;;;;;;29.86;38.58;99764.28;4495676;31;34314;-58
2022/06/27 08:31:27;;;;;;;5.55;3.28;;;;;;;29.79;38.95;99769.03;4499059;31;33695;-59
2022/06/27 08:34:01;;;;;;;6.57;3.37;;;;;;;29.82;38.82;99772.16;4497077;31;33573;-59
2022/06/27 08:36:33;;;;;;;6.25;3.40;;;;;;;30.02;37.97;99774.56;4496031;31;33554;-61
2022/06/27 08:39:05;;;;;;;6.22;3.35;;;;;;;30.07;37.33;99771.06;4500162;31;33777;-59
2022/06/27 08:41:34;;;;;;;4.70;3.08;;;;;;;29.36;38.29;99775.69;4497419;31;34339;-59
2022/06/27 08:44:04;;;;;;;7.10;3.55;;;;;;;29.90;37.61;99776.50;4495014;31;33633;-59
2022/06/27 08:46:32;;;;;;;5.45;3.12;;;;;;;30.29;37.42;99766.63;4498521;31;33082;-60
2022/06/27 08:49:02;;;;;;;9.07;3.50;;;;;;;30.40;37.19;99768.53;4494871;31;32348;-61
2022/06/27 08:51:31;;;;;;;6.53;3.20;;;;;;;30.64;36.70;99766.53;4493737;31;35301;-61
2022/06/27 08:53:59;;;;;;;5.37;3.17;;;;;;;30.66;35.30;99760.78;4497912;31;33829;-60
2022/06/27 08:56:29;;;;;;;7.32;3.15;;;;;;;30.53;37.04;99769.31;4492839;31;32124;-59
2022/06/27 08:58:59;;;;;;;4.90;2.92;;;;;;;30.45;36.01;99756.75;4487981;31;32368;-60
2022/06/27 09:01:27;;;;;;;5.68;3.03;;;;;;;30.83;36.72;99760.84;4490401;31;35392;-63
2022/06/27 09:04:02;;;;;;;5.05;2.85;;;;;;;31.28;35.18;99755.31;4490924;31;34814;-58
2022/06/27 09:06:43;;;;;;;7.35;3.35;;;;;;;30.82;34.87;99757.25;4491523;31;31891;-62
2022/06/27 09:09:11;;;;;;;4.75;3.03;;;;;;;31.07;34.85;99748.56;4493384;31;34586;-58
2022/06/27 09:11:41;;;;;;;8.52;3.62;;;;;;;30.67;35.87;99759.69;4494080;31;34191;-58
2022/06/27 09:14:33;;;;;;;5.35;2.78;;;;;;;30.99;36.17;99750.91;4493442;31;33924;-61
2022/06/27 09:17:15;;;;;;;5.75;2.92;;;;;;;31.35;35.05;99738.59;4485223;31;31510;-60
2022/06/27 09:19:52;;;;;;;5.37;3.05;;;;;;;31.40;34.67;99737.84;4498852;31;34907;-59
2022/06/27 09:22:24;;;;;;;4.57;2.72;;;;;;;31.62;35.38;99741.53;4473470;31;33526;-61
2022/06/27 09:25:04;;;;;;;5.22;2.80;;;;;;;31.45;33.04;99737.91;4495314;31;34087;-59
2022/06/27 09:27:47;;;;;;;10.15;3.50;;;;;;;31.81;33.58;99738.47;4488504;31;31923;-62
2022/06/27 09:30:18;;;;;;;10.50;2.95;;;;;;;32.01;33.40;99736.03;4494930;31;35018;-59
2022/06/27 09:32:49;;;;;;;6.37;2.60;;;;;;;32.32;31.83;99736.41;4497364;31;35739;-62
2022/06/27 09:35:32;;;;;;;4.72;2.70;;;;;;;32.68;32.25;99737.69;4499301;31;32253;-59
2022/06/27 09:38:02;;;;;;;3.45;2.30;;;;;;;32.75;31.12;99729.19;4495706;31;33523;-60
2022/06/27 09:40:33;;;;;;;4.15;2.42;;;;;;;32.67;30.81;99725.78;4496873;31;33613;-59
2022/06/27 09:43:06;;;;;;;7.65;2.62;;;;;;;32.88;31.63;99737.94;4493822;31;35119;-59
2022/06/27 09:45:33;;;;;;;6.82;3.03;;;;;;;32.75;30.02;99727.25;4491259;31;33940;-62
2022/06/27 09:48:04;;;;;;;6.47;3.12;;;;;;;33.13;29.95;99715.19;4499502;31;32423;-60
2022/06/27 09:50:36;;;;;;;6.87;3.00;;;;;;;33.29;30.90;99723.62;4499377;31;35020;-58
2022/06/27 09:53:04;;;;;;;4.03;2.30;;;;;;;33.31;31.39;99721.44;4499872;31;34145;-56
2022/06/27 09:55:32;;;;;;;6.10;2.47;;;;;;;33.69;28.99;99719.53;4500048;31;32339;-57
2022/06/27 09:58:02;;;;;;;4.32;2.30;;;;;;;33.38;29.85;99722.88;4495706;31;33315;-57
2022/06/27 10:00:30;;;;;;;3.83;2.60;;;;;;;33.45;28.55;99713.47;4494061;31;35025;-58
2022/06/27 10:03:00;;;;;;;7.32;2.72;;;;;;;34.01;28.81;99713.88;4492858;31;33746;-56
2022/06/27 10:05:27;;;;;;;6.30;3.10;;;;;;;33.98;30.36;99718.03;4494171;31;33402;-57
2022/06/27 10:07:57;;;;;;;5.68;2.55;;;;;;;34.26;28.83;99707.66;4499623;31;34215;-59
2022/06/27 10:10:30;;;;;;;5.47;2.70;;;;;;;34.23;28.78;99708.19;4499955;31;32484;-59
2022/06/27 10:13:02;;;;;;;5.80;2.58;;;;;;;34.15;29.30;99706.75;4483546;31;32522;-58
2022/06/27 10:15:32;;;;;;;8.70;2.55;;;;;;;34.61;27.68;99700.53;4498207;31;34946;-58
2022/06/27 10:18:02;;;;;;;6.60;2.58;;;;;;;34.93;27.56;99703.09;4496258;31;32828;-58
2022/06/27 10:20:36;;;;;;;6.18;4.20;;;;;;;34.65;27.50;99687.78;4498978;31;33128;-58
2022/06/27 10:23:03;;;;;;;4.05;2.58;;;;;;;34.24;28.55;99696.78;4500369;31;33382;-58
2022/06/27 10:25:31;;;;;;;7.25;2.58;;;;;;;34.49;27.83;99698.81;4488007;31;33417;-59
2022/06/27 10:28:12;;;;;;;4.50;2.37;;;;;;;34.52;28.22;99689.09;4495294;31;32563;-62
2022/06/27 10:30:47;;;;;;;5.05;3.05;;;;;;;34.86;28.41;99703.37;4500317;31;35749;-60
2022/06/27 10:33:17;;;;;;;5.95;2.47;;;;;;;34.95;29.28;99693.38;4496688;31;33877;-59
2022/06/27 10:35:54;;;;;;;6.90;2.50;;;;;;;35.19;27.21;99699.25;4498904;31;34086;-59
2022/06/27 10:38:29;;;;;;;5.47;2.65;;;;;;;35.10;26.66;99694.53;4498554;31;33561;-58
2022/06/27 10:40:59;;;;;;;6.20;2.37;;;;;;;35.11;27.03;99677.56;4498570;31;33255;-60
2022/06/27 10:43:39;;;;;;;5.35;2.60;;;;;;;35.27;26.38;99678.38;4494574;31;34601;-61
2022/06/27 10:46:06;;;;;;;6.12;2.33;;;;;;;34.87;27.12;99688.37;4498201;31;35040;-60
2022/06/27 10:48:48;;;;;;;5.10;2.53;;;;;;;34.83;26.94;99678.91;4499358;31;33388;-59
2022/06/27 10:51:29;;;;;;;5.70;2.45;;;;;;;35.25;26.24;99683.41;4498373;31;35068;-60
2022/06/27 10:54:09;;;;;;;5.82;2.97;;;;;;;35.38;26.16;99680.06;4497894;31;33445;-61
2022/06/27 10:56:47;;;;;;;5.78;2.75;;;;;;;35.46;26.06;99665.56;4487985;31;32385;-60
2022/06/27 10:59:21;;;;;;;5.68;2.30;;;;;;;35.27;26.67;99674.78;4497409;31;33518;-60
2022/06/27 11:02:00;;;;;;;5.70;2.45;;;;;;;34.91;25.46;99678.34;4497960;31;32289;-59
2022/06/27 11:04:37;;;;;;;5.50;2.83;;;;;;;34.87;25.69;99668.09;4492716;31;32864;-61
2022/06/27 11:07:06;;;;;;;8.88;2.90;;;;;;;34.59;26.18;99661.09;4486574;31;33690;-59
2022/06/27 11:09:34;;;;;;;4.80;2.33;;;;;;;34.45;27.28;99667.16;4491910;31;32976;-58
2022/06/27 11:12:02;;;;;;;6.37;2.62;;;;;;;34.31;27.73;99677.09;4495384;31;33861;-58
2022/06/27 11:14:30;;;;;;;4.32;2.37;;;;;;;34.93;27.22;99653.91;4495262;31;35170;-59
2022/06/27 11:16:57;;;;;;;6.75;2.15;;;;;;;34.49;26.64;99668.25;4492846;31;34889;-58
2022/06/27 11:22:19;;;;;;;5.05;2.60;;;;;;;34.59;26.33;99653.56;4487034;31;32543;-61
2022/06/27 11:24:48;;;;;;;8.18;2.58;;;;;;;34.48;26.58;99654.62;4493163;31;34142;-59
2022/06/27 11:27:16;;;;;;;5.62;2.60;;;;;;;34.71;27.12;99647.78;4491208;31;33212;-61
2022/06/27 11:32:35;;;;;;;3.70;2.28;;;;;;;35.33;26.10;99638.31;4487173;31;34809;-60
2022/06/27 11:35:05;;;;;;;5.47;2.55;;;;;;;35.12;27.36;99629.19;4487899;31;32463;-58
2022/06/27 11:37:33;;;;;;;5.62;2.35;;;;;;;35.35;26.69;99638.88;4482357;31;34188;-59
2022/06/27 11:40:04;;;;;;;6.57;2.90;;;;;;;34.94;28.35;99638.06;4484575;31;33340;-61
2022/06/27 11:42:35;;;;;;;5.62;2.33;;;;;;;35.03;26.49;99628.06;4494151;31;33197;-59
2022/06/27 11:45:08;;;;;;;7.10;2.60;;;;;;;35.10;26.58;99638.91;4496700;31;34307;-60
2022/06/27 11:47:39;;;;;;;6.30;2.37;;;;;;;34.42;26.41;99639.91;4488150;31;33236;-57
2022/06/27 11:50:12;;;;;;;5.25;2.37;;;;;;;34.66;25.58;99634.69;4484572;31;33373;-61
2022/06/27 11:52:44;;;;;;;4.80;2.40;;;;;;;35.05;25.13;99627.78;4494844;31;33945;-57